SWA4310 KSLC-KSJC
Flight info
| Callsign | SWA4310 |
|---|---|
| Flight time | 1h 25m |
| Altitude | 36000 |
| Route | DEZRT2 MVA GYLET STUBL RAZRR5 |
| Aircraft | B738/M-SDE2E3FGHIRWXY/LB1 |
Departure
| Time | 2026-05-07 19:37 |
|---|---|
| Airport | Salt Lake City International Airport (KSLC) |
Arrival
| Time | 2026-05-07 21:03 |
|---|---|
| Airport | Norman Y. Mineta San Jose International Airport (KSJC) |
| Time | Latitude | Longitude | Altitude | Speed | Heading |
|---|---|---|---|---|---|
| 2026-05-07 19:08 | 40.78867 | -111.98166 | 4230 ft | 0 kts | 355° |
| 2026-05-07 19:26 | 40.78853 | -111.98164 | 4230 ft | 4 kts | 355° |
| 2026-05-07 19:26 | 40.78827 | -111.98164 | 4230 ft | 4 kts | 15° |
| 2026-05-07 19:27 | 40.78805 | -111.98179 | 4230 ft | 4 kts | 54° |
| 2026-05-07 19:27 | 40.78797 | -111.98202 | 4230 ft | 1 kts | 84° |
| 2026-05-07 19:27 | 40.78797 | -111.98206 | 4230 ft | 0 kts | 84° |
| 2026-05-07 19:30 | 40.78797 | -111.98196 | 4230 ft | 4 kts | 84° |
| 2026-05-07 19:30 | 40.78804 | -111.98116 | 4230 ft | 13 kts | 84° |
| 2026-05-07 19:30 | 40.78815 | -111.97969 | 4230 ft | 18 kts | 84° |
| 2026-05-07 19:31 | 40.78819 | -111.97911 | 4230 ft | 0 kts | 84° |
| 2026-05-07 19:32 | 40.78819 | -111.97910 | 4230 ft | 1 kts | 84° |
| 2026-05-07 19:32 | 40.78821 | -111.97890 | 4230 ft | 5 kts | 82° |
| 2026-05-07 19:33 | 40.78830 | -111.97814 | 4230 ft | 10 kts | 82° |
| 2026-05-07 19:33 | 40.78851 | -111.97715 | 4230 ft | 12 kts | 46° |
| 2026-05-07 19:33 | 40.78948 | -111.97704 | 4229 ft | 17 kts | 355° |
| 2026-05-07 19:33 | 40.79092 | -111.97722 | 4230 ft | 24 kts | 355° |
| 2026-05-07 19:34 | 40.79265 | -111.97742 | 4230 ft | 26 kts | 355° |
| 2026-05-07 19:34 | 40.79461 | -111.97765 | 4229 ft | 30 kts | 355° |
| 2026-05-07 19:34 | 40.79683 | -111.97790 | 4229 ft | 35 kts | 355° |
| 2026-05-07 19:34 | 40.79934 | -111.97820 | 4230 ft | 37 kts | 355° |
| 2026-05-07 19:35 | 40.80185 | -111.97849 | 4230 ft | 35 kts | 355° |
| 2026-05-07 19:35 | 40.80399 | -111.97823 | 4230 ft | 29 kts | 356° |
| 2026-05-07 19:35 | 40.80585 | -111.97845 | 4230 ft | 27 kts | 355° |
| 2026-05-07 19:35 | 40.80727 | -111.97850 | 4229 ft | 11 kts | 25° |
| 2026-05-07 19:36 | 40.80741 | -111.97760 | 4228 ft | 12 kts | 111° |
| 2026-05-07 19:36 | 40.80660 | -111.97689 | 4228 ft | 15 kts | 173° |
| 2026-05-07 19:36 | 40.80513 | -111.97671 | 4231 ft | 43 kts | 174° |
| 2026-05-07 19:36 | 40.79977 | -111.97608 | 4230 ft | 110 kts | 175° |
| 2026-05-07 19:37 | 40.79018 | -111.97495 | 4230 ft | 165 kts | 175° |
| 2026-05-07 19:37 | 40.77776 | -111.97362 | 4672 ft | 179 kts | 176° |
| 2026-05-07 19:37 | 40.76964 | -111.97300 | 5291 ft | 177 kts | 173° |
| 2026-05-07 19:37 | 40.75241 | -111.97049 | 6144 ft | 192 kts | 182° |
| 2026-05-07 19:38 | 40.74001 | -111.97684 | 6806 ft | 197 kts | 219° |
| 2026-05-07 19:38 | 40.73238 | -111.99228 | 7225 ft | 213 kts | 252° |
| 2026-05-07 19:38 | 40.73239 | -112.01291 | 7396 ft | 241 kts | 283° |
| 2026-05-07 19:38 | 40.73819 | -112.03447 | 7767 ft | 254 kts | 290° |
| 2026-05-07 19:39 | 40.74480 | -112.05638 | 8464 ft | 258 kts | 292° |
| 2026-05-07 19:39 | 40.75155 | -112.07693 | 9225 ft | 261 kts | 293° |
| 2026-05-07 19:39 | 40.75912 | -112.09915 | 9656 ft | 277 kts | 293° |
| 2026-05-07 19:39 | 40.76727 | -112.12303 | 10305 ft | 286 kts | 293° |
| 2026-05-07 19:40 | 40.77574 | -112.14803 | 10554 ft | 312 kts | 293° |
| 2026-05-07 19:40 | 40.78489 | -112.17513 | 10785 ft | 333 kts | 293° |
| 2026-05-07 19:40 | 40.79430 | -112.20312 | 11322 ft | 341 kts | 293° |
| 2026-05-07 19:40 | 40.80400 | -112.23212 | 12212 ft | 338 kts | 293° |
| 2026-05-07 19:41 | 40.81335 | -112.26013 | 13024 ft | 339 kts | 294° |
| 2026-05-07 19:41 | 40.82291 | -112.28879 | 13745 ft | 343 kts | 294° |
| 2026-05-07 19:41 | 40.83254 | -112.31770 | 14453 ft | 345 kts | 294° |
| 2026-05-07 19:41 | 40.84226 | -112.34692 | 15167 ft | 348 kts | 294° |
| 2026-05-07 19:42 | 40.85197 | -112.37620 | 15943 ft | 348 kts | 294° |
| 2026-05-07 19:42 | 40.86140 | -112.40583 | 16601 ft | 352 kts | 290° |
| 2026-05-07 19:42 | 40.86727 | -112.43741 | 17241 ft | 356 kts | 281° |
| 2026-05-07 19:42 | 40.86964 | -112.47019 | 17821 ft | 363 kts | 272° |
| 2026-05-07 19:43 | 40.86798 | -112.50360 | 18469 ft | 366 kts | 268° |
| 2026-05-07 19:43 | 40.86548 | -112.53712 | 19043 ft | 370 kts | 268° |
| 2026-05-07 19:43 | 40.86299 | -112.57134 | 19579 ft | 374 kts | 268° |
| 2026-05-07 19:43 | 40.86041 | -112.60566 | 20100 ft | 378 kts | 268° |
| 2026-05-07 19:44 | 40.85762 | -112.63991 | 20607 ft | 382 kts | 268° |
| 2026-05-07 19:44 | 40.85472 | -112.67493 | 21118 ft | 385 kts | 268° |
| 2026-05-07 19:44 | 40.85178 | -112.71029 | 21636 ft | 388 kts | 268° |
| 2026-05-07 19:44 | 40.84886 | -112.74586 | 22120 ft | 391 kts | 268° |
| 2026-05-07 19:45 | 40.84593 | -112.78164 | 22570 ft | 394 kts | 268° |
| 2026-05-07 19:45 | 40.84296 | -112.81779 | 22990 ft | 397 kts | 268° |
| 2026-05-07 19:45 | 40.84099 | -112.85421 | 23420 ft | 398 kts | 273° |
| 2026-05-07 19:45 | 40.84084 | -112.89084 | 23864 ft | 400 kts | 275° |
| 2026-05-07 19:46 | 40.84116 | -112.92765 | 24284 ft | 402 kts | 275° |
| 2026-05-07 19:46 | 40.84159 | -112.96478 | 24681 ft | 405 kts | 275° |
| 2026-05-07 19:46 | 40.84195 | -113.00206 | 25103 ft | 407 kts | 275° |
| 2026-05-07 19:46 | 40.84222 | -113.03956 | 25508 ft | 409 kts | 275° |
| 2026-05-07 19:47 | 40.84241 | -113.07726 | 25883 ft | 412 kts | 275° |
| 2026-05-07 19:47 | 40.84253 | -113.11466 | 26233 ft | 414 kts | 275° |
| 2026-05-07 19:47 | 40.84262 | -113.15282 | 26586 ft | 417 kts | 275° |
| 2026-05-07 19:47 | 40.84268 | -113.19120 | 26932 ft | 419 kts | 275° |
| 2026-05-07 19:48 | 40.84271 | -113.22977 | 27296 ft | 420 kts | 275° |
| 2026-05-07 19:48 | 40.84274 | -113.26841 | 27631 ft | 422 kts | 274° |
| 2026-05-07 19:48 | 40.84275 | -113.30741 | 27949 ft | 425 kts | 275° |
| 2026-05-07 19:48 | 40.84275 | -113.34649 | 28266 ft | 427 kts | 275° |
| 2026-05-07 19:49 | 40.84273 | -113.38579 | 28572 ft | 429 kts | 274° |
| 2026-05-07 19:49 | 40.84271 | -113.42534 | 28880 ft | 431 kts | 275° |
| 2026-05-07 19:49 | 40.84267 | -113.46501 | 29166 ft | 433 kts | 274° |
| 2026-05-07 19:49 | 40.84263 | -113.50486 | 29419 ft | 435 kts | 274° |
| 2026-05-07 19:50 | 40.84255 | -113.54486 | 29772 ft | 435 kts | 274° |
| 2026-05-07 19:50 | 40.84252 | -113.55786 | 29924 ft | 434 kts | 274° |
| 2026-05-07 19:50 | 40.84242 | -113.59889 | 30413 ft | 431 kts | 274° |
| 2026-05-07 19:50 | 40.84231 | -113.63835 | 30800 ft | 430 kts | 274° |
| 2026-05-07 19:51 | 40.84220 | -113.67791 | 31119 ft | 430 kts | 274° |
| 2026-05-07 19:51 | 40.84209 | -113.71736 | 31436 ft | 430 kts | 275° |
| 2026-05-07 19:51 | 40.84197 | -113.75682 | 31778 ft | 429 kts | 275° |
| 2026-05-07 19:51 | 40.84182 | -113.79562 | 32133 ft | 428 kts | 274° |
| 2026-05-07 19:52 | 40.84166 | -113.83492 | 32446 ft | 428 kts | 274° |
| 2026-05-07 19:52 | 40.84147 | -113.87427 | 32739 ft | 427 kts | 274° |
| 2026-05-07 19:52 | 40.84124 | -113.91353 | 33061 ft | 426 kts | 274° |
| 2026-05-07 19:52 | 40.84100 | -113.95264 | 33405 ft | 425 kts | 274° |
| 2026-05-07 19:53 | 40.84074 | -113.99164 | 33727 ft | 424 kts | 274° |
| 2026-05-07 19:53 | 40.84047 | -114.03069 | 33980 ft | 424 kts | 274° |
| 2026-05-07 19:53 | 40.84020 | -114.06974 | 34191 ft | 426 kts | 274° |
| 2026-05-07 19:53 | 40.83991 | -114.10879 | 34466 ft | 425 kts | 274° |
| 2026-05-07 19:54 | 40.83961 | -114.14779 | 34778 ft | 424 kts | 274° |
| 2026-05-07 19:54 | 40.83929 | -114.18661 | 35087 ft | 422 kts | 274° |
| 2026-05-07 19:54 | 40.83897 | -114.22482 | 35320 ft | 422 kts | 274° |
| 2026-05-07 19:54 | 40.83864 | -114.26361 | 35524 ft | 422 kts | 274° |
| 2026-05-07 19:55 | 40.83829 | -114.30245 | 35776 ft | 422 kts | 274° |
| 2026-05-07 19:55 | 40.83793 | -114.34113 | 36028 ft | 421 kts | 274° |
| 2026-05-07 19:55 | 40.83717 | -114.41898 | 36117 ft | 425 kts | 274° |
| 2026-05-07 19:56 | 40.83635 | -114.49681 | 36112 ft | 422 kts | 274° |
| 2026-05-07 19:56 | 40.83548 | -114.57396 | 36117 ft | 419 kts | 274° |
| 2026-05-07 19:57 | 40.83459 | -114.65067 | 36122 ft | 416 kts | 274° |
| 2026-05-07 19:57 | 40.82909 | -114.72683 | 36123 ft | 426 kts | 255° |
| 2026-05-07 19:58 | 40.81585 | -114.76234 | 36127 ft | 439 kts | 241° |
| 2026-05-07 19:58 | 40.79549 | -114.79246 | 36145 ft | 454 kts | 226° |
| 2026-05-07 19:58 | 40.74580 | -114.84552 | 36138 ft | 463 kts | 223° |
| 2026-05-07 19:59 | 40.69477 | -114.89783 | 36131 ft | 466 kts | 223° |
| 2026-05-07 19:59 | 40.64373 | -114.95083 | 36144 ft | 467 kts | 224° |
| 2026-05-07 20:00 | 40.59325 | -115.00383 | 36136 ft | 459 kts | 224° |
| 2026-05-07 20:00 | 40.55193 | -115.04733 | 36149 ft | 457 kts | 224° |
| 2026-05-07 20:01 | 40.49655 | -115.11188 | 36157 ft | 450 kts | 235° |
| 2026-05-07 20:01 | 40.45679 | -115.17523 | 36159 ft | 449 kts | 237° |
| 2026-05-07 20:02 | 40.41739 | -115.23916 | 36155 ft | 451 kts | 236° |
| 2026-05-07 20:02 | 40.37755 | -115.30277 | 36161 ft | 452 kts | 236° |
| 2026-05-07 20:03 | 40.33756 | -115.36585 | 36162 ft | 453 kts | 235° |
| 2026-05-07 20:03 | 40.29712 | -115.42926 | 36166 ft | 453 kts | 235° |
| 2026-05-07 20:04 | 40.26345 | -115.48193 | 36165 ft | 453 kts | 235° |
| 2026-05-07 20:04 | 40.22292 | -115.54528 | 36174 ft | 454 kts | 235° |
| 2026-05-07 20:05 | 40.18229 | -115.60876 | 36165 ft | 456 kts | 235° |
| 2026-05-07 20:05 | 40.14154 | -115.67222 | 36173 ft | 456 kts | 235° |
| 2026-05-07 20:06 | 40.10065 | -115.73573 | 36176 ft | 456 kts | 234° |
| 2026-05-07 20:06 | 40.06000 | -115.79875 | 36165 ft | 456 kts | 234° |
| 2026-05-07 20:07 | 40.01906 | -115.86211 | 36170 ft | 456 kts | 234° |
| 2026-05-07 20:07 | 39.98501 | -115.91469 | 36172 ft | 456 kts | 234° |
| 2026-05-07 20:08 | 39.93717 | -115.98843 | 36184 ft | 455 kts | 234° |
| 2026-05-07 20:08 | 39.89634 | -116.05127 | 36181 ft | 454 kts | 234° |
| 2026-05-07 20:09 | 39.85581 | -116.11347 | 36200 ft | 453 kts | 234° |
| 2026-05-07 20:10 | 39.79450 | -116.20732 | 36196 ft | 454 kts | 234° |
| 2026-05-07 20:10 | 39.75354 | -116.26990 | 36189 ft | 454 kts | 234° |
| 2026-05-07 20:11 | 39.71263 | -116.33227 | 36201 ft | 454 kts | 234° |
| 2026-05-07 20:11 | 39.67156 | -116.39477 | 36199 ft | 455 kts | 234° |
| 2026-05-07 20:12 | 39.63034 | -116.45736 | 36186 ft | 456 kts | 233° |
| 2026-05-07 20:12 | 39.58931 | -116.51950 | 36197 ft | 456 kts | 233° |
| 2026-05-07 20:13 | 39.54802 | -116.58195 | 36186 ft | 456 kts | 233° |
| 2026-05-07 20:13 | 39.50669 | -116.64431 | 36194 ft | 456 kts | 233° |
| 2026-05-07 20:14 | 39.46529 | -116.70669 | 36194 ft | 456 kts | 233° |
| 2026-05-07 20:14 | 39.42382 | -116.76900 | 36202 ft | 457 kts | 233° |
| 2026-05-07 20:15 | 39.38226 | -116.83135 | 36201 ft | 457 kts | 233° |
| 2026-05-07 20:15 | 39.34098 | -116.89315 | 36203 ft | 457 kts | 233° |
| 2026-05-07 20:16 | 39.29935 | -116.95536 | 36211 ft | 457 kts | 232° |
| 2026-05-07 20:16 | 39.25777 | -117.01734 | 36204 ft | 456 kts | 232° |
| 2026-05-07 20:17 | 39.21619 | -117.07925 | 36202 ft | 456 kts | 232° |
| 2026-05-07 20:17 | 39.17482 | -117.14071 | 36209 ft | 457 kts | 232° |
| 2026-05-07 20:18 | 39.13304 | -117.20265 | 36208 ft | 458 kts | 232° |
| 2026-05-07 20:18 | 39.09120 | -117.26456 | 36198 ft | 459 kts | 232° |
| 2026-05-07 20:19 | 39.04907 | -117.32679 | 36194 ft | 460 kts | 232° |
| 2026-05-07 20:19 | 39.00718 | -117.38850 | 36184 ft | 460 kts | 232° |
| 2026-05-07 20:20 | 38.96505 | -117.45045 | 36185 ft | 460 kts | 232° |
| 2026-05-07 20:20 | 38.92292 | -117.51232 | 36179 ft | 459 kts | 231° |
| 2026-05-07 20:21 | 38.88084 | -117.57398 | 36169 ft | 458 kts | 231° |
| 2026-05-07 20:21 | 38.83883 | -117.63541 | 36166 ft | 458 kts | 231° |
| 2026-05-07 20:22 | 38.79682 | -117.69670 | 36164 ft | 457 kts | 231° |
| 2026-05-07 20:22 | 38.75510 | -117.75748 | 36169 ft | 457 kts | 231° |
| 2026-05-07 20:23 | 38.71303 | -117.81863 | 36175 ft | 459 kts | 231° |
| 2026-05-07 20:23 | 38.67067 | -117.88012 | 36163 ft | 460 kts | 231° |
| 2026-05-07 20:24 | 38.62825 | -117.94158 | 36153 ft | 460 kts | 231° |
| 2026-05-07 20:24 | 38.58588 | -118.00282 | 36155 ft | 459 kts | 230° |
| 2026-05-07 20:25 | 38.53898 | -118.05821 | 36148 ft | 461 kts | 217° |
| 2026-05-07 20:25 | 38.48612 | -118.10462 | 36161 ft | 461 kts | 215° |
| 2026-05-07 20:26 | 38.43335 | -118.15021 | 36168 ft | 461 kts | 216° |
| 2026-05-07 20:26 | 38.38047 | -118.19651 | 36164 ft | 461 kts | 216° |
| 2026-05-07 20:27 | 38.32762 | -118.24310 | 36169 ft | 462 kts | 216° |
| 2026-05-07 20:27 | 38.27473 | -118.28977 | 36162 ft | 462 kts | 216° |
| 2026-05-07 20:28 | 38.22184 | -118.33631 | 36179 ft | 462 kts | 216° |
| 2026-05-07 20:28 | 38.16926 | -118.38250 | 36179 ft | 462 kts | 216° |
| 2026-05-07 20:29 | 38.11619 | -118.42901 | 36175 ft | 464 kts | 216° |
| 2026-05-07 20:29 | 38.06306 | -118.47550 | 36183 ft | 464 kts | 216° |
| 2026-05-07 20:30 | 38.00991 | -118.52195 | 36198 ft | 464 kts | 216° |
| 2026-05-07 20:30 | 37.95672 | -118.56832 | 36205 ft | 463 kts | 215° |
| 2026-05-07 20:31 | 37.90390 | -118.61428 | 36216 ft | 463 kts | 215° |
| 2026-05-07 20:31 | 37.85076 | -118.66047 | 36231 ft | 463 kts | 215° |
| 2026-05-07 20:32 | 37.79768 | -118.70651 | 36246 ft | 463 kts | 215° |
| 2026-05-07 20:32 | 37.74455 | -118.75251 | 36265 ft | 462 kts | 215° |
| 2026-05-07 20:33 | 37.69141 | -118.79845 | 36281 ft | 462 kts | 215° |
| 2026-05-07 20:33 | 37.63833 | -118.84424 | 36296 ft | 463 kts | 215° |
| 2026-05-07 20:34 | 37.58548 | -118.88977 | 36305 ft | 463 kts | 215° |
| 2026-05-07 20:34 | 37.53215 | -118.93565 | 36282 ft | 465 kts | 215° |
| 2026-05-07 20:35 | 37.47996 | -118.98337 | 36260 ft | 464 kts | 226° |
| 2026-05-07 20:35 | 37.45926 | -119.01432 | 36269 ft | 461 kts | 238° |
| 2026-05-07 20:35 | 37.44380 | -119.04942 | 36254 ft | 458 kts | 250° |
| 2026-05-07 20:35 | 37.43380 | -119.08735 | 36104 ft | 458 kts | 255° |
| 2026-05-07 20:36 | 37.42492 | -119.12593 | 35717 ft | 456 kts | 256° |
| 2026-05-07 20:36 | 37.41633 | -119.16407 | 35300 ft | 451 kts | 256° |
| 2026-05-07 20:36 | 37.40773 | -119.20194 | 34881 ft | 448 kts | 256° |
| 2026-05-07 20:36 | 37.39905 | -119.23946 | 34446 ft | 445 kts | 255° |
| 2026-05-07 20:37 | 37.39028 | -119.27671 | 34024 ft | 441 kts | 255° |
| 2026-05-07 20:37 | 37.38153 | -119.31352 | 33607 ft | 438 kts | 255° |
| 2026-05-07 20:37 | 37.37289 | -119.34956 | 33187 ft | 435 kts | 255° |
| 2026-05-07 20:37 | 37.36419 | -119.38591 | 32764 ft | 433 kts | 255° |
| 2026-05-07 20:38 | 37.35549 | -119.42205 | 32347 ft | 430 kts | 255° |
| 2026-05-07 20:38 | 37.34682 | -119.45791 | 31922 ft | 428 kts | 255° |
| 2026-05-07 20:38 | 37.33819 | -119.49360 | 31501 ft | 425 kts | 255° |
| 2026-05-07 20:38 | 37.32960 | -119.52909 | 31082 ft | 423 kts | 255° |
| 2026-05-07 20:39 | 37.32107 | -119.56437 | 30671 ft | 420 kts | 255° |
| 2026-05-07 20:39 | 37.31260 | -119.59932 | 30254 ft | 418 kts | 255° |
| 2026-05-07 20:39 | 37.30415 | -119.63415 | 29837 ft | 416 kts | 255° |
| 2026-05-07 20:39 | 37.29572 | -119.66881 | 29433 ft | 412 kts | 255° |
| 2026-05-07 20:40 | 37.28738 | -119.70312 | 29008 ft | 409 kts | 255° |
| 2026-05-07 20:40 | 37.27907 | -119.73725 | 28560 ft | 407 kts | 255° |
| 2026-05-07 20:40 | 37.27082 | -119.77109 | 28145 ft | 405 kts | 255° |
| 2026-05-07 20:40 | 37.26259 | -119.80481 | 27721 ft | 402 kts | 255° |
| 2026-05-07 20:41 | 37.25441 | -119.83826 | 27318 ft | 400 kts | 255° |
| 2026-05-07 20:41 | 37.24623 | -119.87166 | 26900 ft | 398 kts | 255° |
| 2026-05-07 20:41 | 37.23823 | -119.90428 | 26495 ft | 395 kts | 255° |
| 2026-05-07 20:41 | 37.23015 | -119.93714 | 26086 ft | 393 kts | 255° |
| 2026-05-07 20:42 | 37.22361 | -119.97026 | 25672 ft | 389 kts | 262° |
| 2026-05-07 20:42 | 37.21972 | -120.00371 | 25267 ft | 385 kts | 265° |
| 2026-05-07 20:42 | 37.21674 | -120.03700 | 24872 ft | 383 kts | 266° |
| 2026-05-07 20:42 | 37.21387 | -120.07011 | 24472 ft | 381 kts | 266° |
| 2026-05-07 20:43 | 37.21083 | -120.10302 | 24074 ft | 379 kts | 265° |
| 2026-05-07 20:43 | 37.20760 | -120.13576 | 23684 ft | 379 kts | 265° |
| 2026-05-07 20:43 | 37.20417 | -120.16915 | 23309 ft | 394 kts | 264° |
| 2026-05-07 20:43 | 37.20054 | -120.20363 | 22878 ft | 402 kts | 264° |
| 2026-05-07 20:44 | 37.19681 | -120.23844 | 22450 ft | 403 kts | 264° |
| 2026-05-07 20:44 | 37.19306 | -120.27313 | 22014 ft | 399 kts | 264° |
| 2026-05-07 20:44 | 37.18934 | -120.30747 | 21587 ft | 396 kts | 264° |
| 2026-05-07 20:44 | 37.18564 | -120.34159 | 21167 ft | 393 kts | 264° |
| 2026-05-07 20:45 | 37.18195 | -120.37540 | 20749 ft | 390 kts | 264° |
| 2026-05-07 20:45 | 37.17829 | -120.40894 | 20332 ft | 386 kts | 264° |
| 2026-05-07 20:45 | 37.17467 | -120.44175 | 19932 ft | 383 kts | 264° |
| 2026-05-07 20:45 | 37.17101 | -120.47473 | 19525 ft | 380 kts | 263° |
| 2026-05-07 20:46 | 37.16737 | -120.50745 | 19120 ft | 378 kts | 263° |
| 2026-05-07 20:46 | 37.16375 | -120.53992 | 18719 ft | 375 kts | 263° |
| 2026-05-07 20:46 | 37.16014 | -120.57225 | 18217 ft | 375 kts | 263° |
| 2026-05-07 20:46 | 37.15652 | -120.60464 | 17791 ft | 374 kts | 263° |
| 2026-05-07 20:47 | 37.15292 | -120.63680 | 17373 ft | 370 kts | 263° |
| 2026-05-07 20:47 | 37.14934 | -120.66857 | 16965 ft | 366 kts | 263° |
| 2026-05-07 20:47 | 37.14581 | -120.69999 | 16581 ft | 362 kts | 263° |
| 2026-05-07 20:47 | 37.14229 | -120.73111 | 16201 ft | 358 kts | 263° |
| 2026-05-07 20:48 | 37.13881 | -120.76181 | 15813 ft | 354 kts | 263° |
| 2026-05-07 20:48 | 37.13655 | -120.78196 | 15563 ft | 352 kts | 263° |
| 2026-05-07 20:48 | 37.13209 | -120.82239 | 15067 ft | 348 kts | 263° |
| 2026-05-07 20:48 | 37.12878 | -120.85239 | 14707 ft | 345 kts | 263° |
| 2026-05-07 20:49 | 37.12550 | -120.88207 | 14338 ft | 342 kts | 263° |
| 2026-05-07 20:49 | 37.12223 | -120.91152 | 13962 ft | 341 kts | 262° |
| 2026-05-07 20:49 | 37.11900 | -120.94052 | 13609 ft | 339 kts | 262° |
| 2026-05-07 20:49 | 37.11574 | -120.96971 | 13255 ft | 337 kts | 262° |
| 2026-05-07 20:50 | 37.11250 | -120.99873 | 12898 ft | 335 kts | 262° |
| 2026-05-07 20:50 | 37.10927 | -121.02761 | 12547 ft | 334 kts | 262° |
| 2026-05-07 20:50 | 37.10604 | -121.05636 | 12195 ft | 332 kts | 262° |
| 2026-05-07 20:50 | 37.10390 | -121.07533 | 11962 ft | 332 kts | 262° |
| 2026-05-07 20:51 | 37.09957 | -121.11353 | 11490 ft | 330 kts | 262° |
| 2026-05-07 20:51 | 37.09890 | -121.14217 | 11116 ft | 330 kts | 276° |
| 2026-05-07 20:51 | 37.10215 | -121.17048 | 10785 ft | 328 kts | 279° |
| 2026-05-07 20:51 | 37.10576 | -121.19868 | 10438 ft | 327 kts | 279° |
| 2026-05-07 20:52 | 37.10929 | -121.22674 | 10094 ft | 326 kts | 279° |
| 2026-05-07 20:52 | 37.11158 | -121.24538 | 9847 ft | 326 kts | 278° |
| 2026-05-07 20:52 | 37.11604 | -121.28295 | 9389 ft | 325 kts | 278° |
| 2026-05-07 20:52 | 37.11929 | -121.31096 | 9057 ft | 323 kts | 278° |
| 2026-05-07 20:53 | 37.12240 | -121.33798 | 8703 ft | 312 kts | 278° |
| 2026-05-07 20:53 | 37.12540 | -121.36441 | 8363 ft | 301 kts | 278° |
| 2026-05-07 20:53 | 37.12830 | -121.38991 | 8043 ft | 291 kts | 278° |
| 2026-05-07 20:53 | 37.13109 | -121.41464 | 7740 ft | 282 kts | 278° |
| 2026-05-07 20:54 | 37.13379 | -121.43877 | 7447 ft | 279 kts | 278° |
| 2026-05-07 20:54 | 37.13647 | -121.46270 | 7168 ft | 274 kts | 278° |
| 2026-05-07 20:54 | 37.13905 | -121.48607 | 6853 ft | 269 kts | 278° |
| 2026-05-07 20:54 | 37.14162 | -121.50912 | 6537 ft | 266 kts | 278° |
| 2026-05-07 20:55 | 37.14420 | -121.53207 | 6242 ft | 264 kts | 278° |
| 2026-05-07 20:55 | 37.14588 | -121.54710 | 6041 ft | 262 kts | 278° |
| 2026-05-07 20:55 | 37.14838 | -121.56963 | 5737 ft | 260 kts | 278° |
| 2026-05-07 20:55 | 37.15085 | -121.59203 | 5450 ft | 258 kts | 278° |
| 2026-05-07 20:56 | 37.15331 | -121.61425 | 5157 ft | 254 kts | 278° |
| 2026-05-07 20:56 | 37.15646 | -121.64265 | 4838 ft | 242 kts | 278° |
| 2026-05-07 20:56 | 37.15799 | -121.65662 | 4699 ft | 236 kts | 278° |
| 2026-05-07 20:56 | 37.16018 | -121.67665 | 4506 ft | 227 kts | 278° |
| 2026-05-07 20:57 | 37.16233 | -121.69625 | 4338 ft | 227 kts | 278° |
| 2026-05-07 20:57 | 37.16719 | -121.71475 | 4139 ft | 224 kts | 306° |
| 2026-05-07 20:57 | 37.17032 | -121.71969 | 4098 ft | 222 kts | 313° |
| 2026-05-07 20:57 | 37.17874 | -121.72986 | 3976 ft | 221 kts | 319° |
| 2026-05-07 20:58 | 37.19067 | -121.74197 | 3801 ft | 220 kts | 322° |
| 2026-05-07 20:58 | 37.20265 | -121.75392 | 3626 ft | 219 kts | 320° |
| 2026-05-07 20:58 | 37.21430 | -121.76637 | 3432 ft | 221 kts | 319° |
| 2026-05-07 20:58 | 37.22588 | -121.77908 | 3236 ft | 221 kts | 319° |
| 2026-05-07 20:59 | 37.23730 | -121.79170 | 3123 ft | 217 kts | 319° |
| 2026-05-07 20:59 | 37.24877 | -121.80437 | 2851 ft | 220 kts | 319° |
| 2026-05-07 20:59 | 37.26019 | -121.81695 | 2554 ft | 216 kts | 319° |
| 2026-05-07 20:59 | 37.27117 | -121.82906 | 2264 ft | 203 kts | 319° |
| 2026-05-07 21:00 | 37.28148 | -121.84043 | 2000 ft | 191 kts | 319° |
| 2026-05-07 21:00 | 37.29119 | -121.85113 | 1766 ft | 179 kts | 319° |
| 2026-05-07 21:00 | 37.30009 | -121.86094 | 1553 ft | 162 kts | 319° |
| 2026-05-07 21:00 | 37.30815 | -121.86984 | 1334 ft | 153 kts | 319° |
| 2026-05-07 21:01 | 37.31617 | -121.87867 | 1119 ft | 151 kts | 319° |
| 2026-05-07 21:01 | 37.32148 | -121.88458 | 962 ft | 156 kts | 319° |
| 2026-05-07 21:01 | 37.32526 | -121.88883 | 870 ft | 156 kts | 318° |
| 2026-05-07 21:01 | 37.33339 | -121.89773 | 678 ft | 154 kts | 318° |
| 2026-05-07 21:02 | 37.34141 | -121.90656 | 474 ft | 153 kts | 318° |
| 2026-05-07 21:02 | 37.34939 | -121.91535 | 268 ft | 152 kts | 318° |
| 2026-05-07 21:02 | 37.35732 | -121.92405 | 89 ft | 149 kts | 318° |
| 2026-05-07 21:02 | 37.36359 | -121.93090 | 66 ft | 73 kts | 319° |
| 2026-05-07 21:03 | 37.36674 | -121.93392 | 70 ft | 37 kts | 353° |
| 2026-05-07 21:03 | 37.36828 | -121.93265 | 66 ft | 20 kts | 50° |
| 2026-05-07 21:03 | 37.36881 | -121.93189 | 71 ft | 10 kts | 49° |
| 2026-05-07 21:03 | 37.36893 | -121.93097 | 72 ft | 14 kts | 127° |
| 2026-05-07 21:04 | 37.36810 | -121.93002 | 70 ft | 21 kts | 139° |
| 2026-05-07 21:04 | 37.36669 | -121.92849 | 63 ft | 31 kts | 139° |
| 2026-05-07 21:04 | 37.36514 | -121.92679 | 72 ft | 24 kts | 139° |
| 2026-05-07 21:04 | 37.36425 | -121.92574 | 64 ft | 13 kts | 107° |
| 2026-05-07 21:05 | 37.36447 | -121.92520 | 72 ft | 1 kts | 49° |
| 2026-05-07 21:05 | 37.36458 | -121.92503 | 70 ft | 2 kts | 48° |
| 2026-05-07 21:05 | 37.36463 | -121.92496 | 72 ft | 0 kts | 48° |